Time;durP1;ratioP1;P1;durP2;ratioP2;P2;SDS_P1;SDS_P2;PMS_P1;PMS_P2;Temp;Humidity;BMP_temperature;BMP_pressure;BME280_temperature;BME280_humidity;BME280_pressure;Samples;Min_cycle;Max_cycle;Signal;HPM_P1;HPM_P2
2021/05/11 00:02:17;;;;;;;13.60;9.80;;;410.50;2355.20;;;;;;5079764;28;20081;-82
2021/05/11 00:04:43;;;;;;;14.98;10.18;;;435.20;2355.20;;;;;;5079939;28;20043;-83
2021/05/11 00:07:09;;;;;;;18.20;9.68;;;410.50;2355.20;;;;;;5079559;28;20028;-80
2021/05/11 00:09:34;;;;;;;18.70;9.40;;;410.50;2355.20;;;;;;5079626;28;20036;-82
2021/05/11 00:12:00;;;;;;;16.02;10.60;;;410.50;2355.20;;;;;;5080095;28;20026;-80
2021/05/11 00:14:26;;;;;;;17.75;8.15;;;410.20;2355.20;;;;;;5079507;28;20122;-82
2021/05/11 00:16:52;;;;;;;13.23;8.68;;;410.10;2355.20;;;;;;5098247;28;20095;-83
2021/05/11 00:19:18;;;;;;;15.48;9.00;;;409.80;2355.20;;;;;;5097572;28;20051;-82
2021/05/11 00:21:44;;;;;;;14.40;8.23;;;409.90;2355.20;;;;;;5079590;28;20465;-84
2021/05/11 00:24:09;;;;;;;16.38;8.93;;;409.90;2355.20;;;;;;5079463;28;20032;-83
2021/05/11 00:26:38;;;;;;;12.90;8.00;;;409.90;2355.20;;;;;;5079120;28;20358;-83
2021/05/11 00:29:07;;;;;;;13.40;8.55;;;409.90;2355.20;;;;;;5079210;28;20036;-83
2021/05/11 00:31:33;;;;;;;14.00;7.90;;;410.00;2355.20;;;;;;5097738;28;20074;-84
2021/05/11 00:33:59;;;;;;;14.48;8.60;;;410.00;2355.20;;;;;;5079394;28;20070;-83
2021/05/11 00:36:25;;;;;;;10.73;8.07;;;410.00;2355.20;;;;;;5079110;28;20046;-84
2021/05/11 00:38:51;;;;;;;14.23;7.97;;;410.10;2355.20;;;;;;5079592;28;20021;-82
2021/05/11 00:41:17;;;;;;;17.58;9.70;;;410.00;2355.20;;;;;;5081442;28;20519;-82
2021/05/11 00:43:44;;;;;;;14.02;8.07;;;409.80;2355.20;;;;;;5081309;28;20032;-83
2021/05/11 00:46:12;;;;;;;11.65;8.25;;;409.80;2355.20;;;;;;5079062;28;20035;-83
2021/05/11 00:48:38;;;;;;;14.73;8.55;;;384.90;2329.60;;;;;;5078612;28;20083;-82
2021/05/11 00:51:05;;;;;;;14.50;7.97;;;409.60;2355.20;;;;;;5096978;28;20028;-83
2021/05/11 00:53:32;;;;;;;14.18;9.40;;;384.90;2329.60;;;;;;5079057;28;20488;-84
2021/05/11 00:55:58;;;;;;;15.70;9.02;;;384.90;2329.60;;;;;;5078559;28;20111;-83
2021/05/11 00:58:24;;;;;;;24.95;9.10;;;384.70;2329.60;;;;;;5078751;28;20058;-83
2021/05/11 01:00:50;;;;;;;11.32;8.32;;;384.80;2329.60;;;;;;5096907;28;20016;-81
2021/05/11 01:03:17;;;;;;;14.60;8.80;;;409.60;2355.20;;;;;;5096421;28;20073;-83
2021/05/11 01:05:42;;;;;;;12.60;8.88;;;384.90;2329.60;;;;;;5078523;28;20032;-84
2021/05/11 01:08:10;;;;;;;12.75;8.27;;;384.90;2329.60;;;;;;5078202;28;20069;-84
2021/05/11 01:10:37;;;;;;;16.73;8.18;;;384.90;2329.60;;;;;;5078534;28;20389;-83
2021/05/11 01:13:03;;;;;;;15.68;8.20;;;384.90;2329.60;;;;;;5096624;28;20048;-83
2021/05/11 01:15:30;;;;;;;14.95;7.43;;;384.90;2329.60;;;;;;5078221;28;20034;-83
2021/05/11 01:18:04;;;;;;;12.52;8.20;;;409.60;2355.20;;;;;;5078309;28;20024;-83
2021/05/11 01:20:36;;;;;;;13.15;7.60;;;409.70;2355.20;;;;;;5077970;28;20040;-83
2021/05/11 01:23:14;;;;;;;11.88;8.13;;;409.60;2355.20;;;;;;5078382;28;20027;-83
2021/05/11 01:25:41;;;;;;;15.73;8.60;;;384.90;2329.60;;;;;;5078978;28;20103;-83
2021/05/11 01:47:50;;;;;;;15.38;9.82;;;384.50;2329.60;;;;;;5096089;28;20480;-82
2021/05/11 01:50:05;;;;;;;14.43;9.02;;;384.50;2329.60;;;;;;5081236;28;20040;-84
2021/05/11 01:52:55;;;;;;;12.32;8.70;;;384.60;2329.60;;;;;;5077877;28;20035;-85
2021/05/11 02:25:14;;;;;;;14.27;8.63;;;384.10;2329.60;;;;;;5073275;28;20082;-84
2021/05/11 02:27:41;;;;;;;14.82;8.52;;;384.10;2329.60;;;;;;5056230;28;20024;-82
2021/05/11 02:30:08;;;;;;;12.40;8.00;;;384.00;2329.60;;;;;;5074895;28;20031;-84
2021/05/11 02:32:39;;;;;;;10.68;7.82;;;359.30;2329.60;;;;;;5074537;28;20033;-86
2021/05/11 02:35:10;;;;;;;17.48;8.85;;;359.30;2329.60;;;;;;5056852;28;20064;-83
2021/05/11 02:37:39;;;;;;;12.55;8.82;;;359.10;2329.60;;;;;;5056672;28;20033;-82
2021/05/11 02:40:07;;;;;;;13.50;8.52;;;359.30;2329.60;;;;;;5056264;28;20078;-83
2021/05/11 02:42:33;;;;;;;13.90;8.77;;;359.30;2329.60;;;;;;5056485;28;20020;-82
2021/05/11 02:45:00;;;;;;;11.82;7.97;;;384.20;2329.60;;;;;;5056393;28;20564;-83
2021/05/11 02:47:26;;;;;;;16.05;9.07;;;359.00;2329.60;;;;;;5055520;28;20064;-84
2021/05/11 02:49:52;;;;;;;17.85;8.52;;;358.80;2329.60;;;;;;5074686;28;20053;-84
2021/05/11 02:52:18;;;;;;;12.50;8.00;;;358.90;2329.60;;;;;;5055617;28;20127;-83
2021/05/11 02:54:44;;;;;;;13.52;7.50;;;358.90;2329.60;;;;;;5055674;28;20028;-82
2021/05/11 02:57:11;;;;;;;13.85;8.95;;;358.90;2329.60;;;;;;5056323;28;20111;-83
2021/05/11 02:59:41;;;;;;;14.70;8.30;;;358.70;2329.60;;;;;;5073951;28;20078;-83
2021/05/11 03:02:08;;;;;;;12.90;8.65;;;358.90;2329.60;;;;;;5055704;28;20103;-81
2021/05/11 03:04:34;;;;;;;14.10;8.15;;;358.70;2329.60;;;;;;5056006;28;20025;-83
2021/05/11 03:07:00;;;;;;;13.00;8.10;;;358.90;2329.60;;;;;;5055664;28;20082;-81
2021/05/11 03:09:27;;;;;;;14.13;7.88;;;358.80;2329.60;;;;;;5055901;28;20024;-83
2021/05/11 03:11:55;;;;;;;12.75;9.40;;;358.90;2329.60;;;;;;5055961;28;20111;-81
2021/05/11 03:14:21;;;;;;;12.82;8.68;;;358.80;2329.60;;;;;;5056413;28;20036;-83
2021/05/11 03:16:48;;;;;;;15.15;7.95;;;358.70;2329.60;;;;;;5039327;28;20025;-83
2021/05/11 03:19:19;;;;;;;15.93;8.40;;;358.50;2329.60;;;;;;5055741;28;20047;-84
2021/05/11 03:22:33;;;;;;;12.48;8.30;;;358.50;2329.60;;;;;;5071940;28;20029;-84
2021/05/11 03:25:01;;;;;;;15.63;9.07;;;358.40;2329.60;;;;;;5044838;28;20036;-84
2021/05/11 03:27:30;;;;;;;12.88;7.88;;;358.50;2329.60;;;;;;5055057;28;20020;-84
2021/05/11 03:29:56;;;;;;;13.10;8.40;;;358.90;2329.60;;;;;;5048276;28;20111;-84
2021/05/11 03:32:23;;;;;;;17.60;10.05;;;358.70;2329.60;;;;;;5055736;28;20432;-86
2021/05/11 03:34:49;;;;;;;19.23;11.45;;;358.50;2329.60;;;;;;5038957;28;20127;-83
2021/05/11 03:37:16;;;;;;;15.02;10.20;;;333.70;2329.60;;;;;;5055345;28;20078;-84
2021/05/11 03:39:46;;;;;;;16.05;10.88;;;358.60;2329.60;;;;;;5058472;28;20021;-85
2021/05/11 03:42:31;;;;;;;16.45;10.32;;;333.70;2329.60;;;;;;5044243;28;20033;-82
2021/05/11 03:45:12;;;;;;;16.10;9.93;;;358.40;2329.60;;;;;;5073822;28;20028;-82
2021/05/11 03:47:48;;;;;;;16.75;10.18;;;358.50;2329.60;;;;;;5040353;28;20024;-84
2021/05/11 03:50:17;;;;;;;20.67;10.50;;;358.40;2329.60;;;;;;5055528;28;20036;-81
2021/05/11 03:52:43;;;;;;;20.95;11.88;;;333.40;2329.60;;;;;;5055650;28;20126;-84
2021/05/11 03:55:28;;;;;;;16.42;10.02;;;333.40;2329.60;;;;;;5055699;28;20078;-84
2021/05/11 03:58:00;;;;;;;32.28;10.10;;;333.70;2329.60;;;;;;5054715;28;20071;-84
2021/05/11 04:01:02;;;;;;;20.73;9.25;;;358.40;2329.60;;;;;;5065567;28;20029;-83
2021/05/11 04:03:48;;;;;;;16.58;9.63;;;333.70;2329.60;;;;;;5085192;28;20052;-83
2021/05/11 04:06:14;;;;;;;14.00;8.65;;;333.70;2329.60;;;;;;5072823;28;20035;-83
2021/05/11 04:16:49;;;;;;;20.77;8.98;;;333.60;2329.60;;;;;;5055563;28;20103;-85
2021/05/11 04:19:15;;;;;;;19.50;9.63;;;358.40;2329.60;;;;;;5051665;28;20421;-83
2021/05/11 04:21:41;;;;;;;24.83;10.48;;;333.60;2329.60;;;;;;5052675;28;20104;-82
2021/05/11 04:24:08;;;;;;;15.55;10.02;;;333.50;2329.60;;;;;;5054078;28;20494;-83
2021/05/11 04:26:34;;;;;;;17.60;9.85;;;333.50;2329.60;;;;;;5051971;28;20033;-82
2021/05/11 04:32:11;;;;;;;20.95;10.95;;;358.50;2329.60;;;;;;4991201;28;20088;-83
2021/05/11 04:35:26;;;;;;;23.45;11.70;;;333.70;2329.60;;;;;;5039663;28;20033;-83
2021/05/11 04:37:52;;;;;;;24.00;11.95;;;333.20;2329.60;;;;;;5039523;28;20029;-84
2021/05/11 04:40:22;;;;;;;23.85;12.07;;;333.60;2329.60;;;;;;5037610;28;20519;-84
2021/05/11 04:42:48;;;;;;;24.13;11.80;;;333.60;2329.60;;;;;;5055557;28;20050;-84
2021/05/11 04:45:22;;;;;;;24.33;11.27;;;333.60;2329.60;;;;;;5055254;28;20138;-84
2021/05/11 04:47:51;;;;;;;26.45;12.88;;;333.50;2329.60;;;;;;5039791;28;20075;-85
2021/05/11 04:50:27;;;;;;;27.23;13.15;;;333.60;2329.60;;;;;;5055145;28;20064;-84
2021/05/11 04:52:57;;;;;;;20.30;11.13;;;333.60;2329.60;;;;;;5055440;28;20021;-83
2021/05/11 04:55:24;;;;;;;21.50;12.30;;;358.50;2329.60;;;;;;5056250;28;20025;-84
2021/05/11 04:57:53;;;;;;;27.92;11.88;;;358.50;2329.60;;;;;;5057541;28;20036;-85
2021/05/11 05:00:19;;;;;;;27.33;12.40;;;358.50;2329.60;;;;;;5055268;28;20029;-83
2021/05/11 05:02:53;;;;;;;21.75;10.48;;;359.20;2329.60;;;;;;5055090;28;20612;-83
2021/05/11 05:05:22;;;;;;;18.20;10.23;;;358.80;2329.60;;;;;;5055728;28;20029;-84
2021/05/11 05:07:53;;;;;;;16.85;9.25;;;359.00;2329.60;;;;;;5054886;28;20104;-82
2021/05/11 05:10:36;;;;;;;21.77;9.80;;;359.10;2329.60;;;;;;5056285;28;20112;-84
2021/05/11 05:13:02;;;;;;;16.65;9.32;;;359.30;2329.60;;;;;;5054670;28;20017;-84
2021/05/11 05:15:32;;;;;;;24.30;9.63;;;359.30;2329.60;;;;;;5038383;28;20032;-83
2021/05/11 05:18:00;;;;;;;23.20;9.93;;;359.30;2329.60;;;;;;5054197;28;20043;-84
2021/05/11 05:20:33;;;;;;;12.73;8.52;;;384.10;2329.60;;;;;;5054839;28;20048;-84
2021/05/11 05:22:59;;;;;;;15.88;9.07;;;384.30;2329.60;;;;;;5055261;28;20090;-83
2021/05/11 05:25:27;;;;;;;20.48;9.52;;;384.40;2329.60;;;;;;5054639;28;20036;-84
2021/05/11 05:30:20;;;;;;;22.73;11.80;;;384.60;2329.60;;;;;;5056181;28;20025;-83
2021/05/11 05:32:46;;;;;;;15.00;10.38;;;384.40;2329.60;;;;;;5055742;28;20025;-85
2021/05/11 05:35:12;;;;;;;15.55;10.27;;;384.30;2329.60;;;;;;5054206;28;20116;-83
2021/05/11 05:37:38;;;;;;;19.80;10.32;;;384.40;2329.60;;;;;;5054430;28;20457;-86
2021/05/11 05:40:07;;;;;;;17.90;10.07;;;384.40;2329.60;;;;;;5054694;28;20053;-83
2021/05/11 05:42:37;;;;;;;11.85;8.00;;;384.60;2329.60;;;;;;5054904;28;20055;-82
2021/05/11 05:45:04;;;;;;;14.27;7.30;;;384.70;2329.60;;;;;;5053854;28;20075;-84
2021/05/11 05:47:30;;;;;;;11.73;7.40;;;384.90;2329.60;;;;;;5054208;28;20471;-82
2021/05/11 05:50:06;;;;;;;10.82;7.10;;;409.60;2355.20;;;;;;5054070;28;20071;-81
2021/05/11 05:52:37;;;;;;;14.48;8.23;;;409.70;2355.20;;;;;;5052757;28;20021;-83
2021/05/11 05:55:03;;;;;;;13.30;8.73;;;409.90;2355.20;;;;;;5052837;28;20025;-84
2021/05/11 05:57:29;;;;;;;16.45;8.27;;;410.00;2355.20;;;;;;5053539;28;20116;-83
2021/05/11 05:59:55;;;;;;;15.13;6.57;;;410.20;2355.20;;;;;;5054494;28;20104;-82
2021/05/11 06:02:23;;;;;;;10.93;6.47;;;410.30;2355.20;;;;;;5053854;28;20025;-83
2021/05/11 06:04:49;;;;;;;12.75;7.00;;;410.50;2355.20;;;;;;5054103;28;20398;-85
2021/05/11 06:07:15;;;;;;;9.40;7.07;;;410.50;2355.20;;;;;;5053978;28;20032;-83
2021/05/11 06:09:41;;;;;;;26.52;6.28;;;435.20;2355.20;;;;;;5053031;28;20044;-84
2021/05/11 06:12:15;;;;;;;12.18;6.80;;;435.40;2355.20;;;;;;5053454;28;20029;-83
2021/05/11 06:17:26;;;;;;;18.98;7.57;;;435.70;2355.20;;;;;;5055071;28;20047;-81
2021/05/11 06:19:53;;;;;;;13.52;6.05;;;435.90;2355.20;;;;;;5067440;28;20054;-82
2021/05/11 06:22:18;;;;;;;15.98;6.47;;;436.10;2355.20;;;;;;5073338;28;20032;-80
2021/05/11 06:24:45;;;;;;;9.75;6.13;;;436.00;2355.20;;;;;;5071685;28;20033;-80
2021/05/11 06:27:12;;;;;;;9.32;7.15;;;460.80;2380.80;;;;;;5073983;28;20027;-81
2021/05/11 06:29:40;;;;;;;11.88;6.57;;;460.80;2380.80;;;;;;5074994;28;20021;-80
2021/05/11 06:32:06;;;;;;;15.23;6.40;;;461.10;2380.80;;;;;;5073281;28;20032;-80
2021/05/11 06:34:33;;;;;;;11.20;6.55;;;461.40;2380.80;;;;;;5074115;28;20063;-78
2021/05/11 06:36:59;;;;;;;12.63;6.28;;;461.40;2380.80;;;;;;5073585;28;20432;-78
2021/05/11 06:39:25;;;;;;;14.82;7.40;;;461.50;2380.80;;;;;;5073443;28;20446;-80
2021/05/11 06:41:54;;;;;;;14.10;8.05;;;461.70;2380.80;;;;;;5073955;28;20435;-81
2021/05/11 06:55:04;;;;;;;15.88;8.25;;;486.80;2380.80;;;;;;5074499;28;20102;-81
2021/05/11 06:57:30;;;;;;;15.90;6.23;;;487.00;2380.80;;;;;;5075130;28;20017;-79
2021/05/11 06:59:56;;;;;;;11.30;6.47;;;487.00;2355.20;;;;;;5073189;28;20031;-80
2021/05/11 07:02:22;;;;;;;11.68;5.88;;;487.10;2380.80;;;;;;5073927;28;20099;-81
2021/05/11 07:04:51;;;;;;;10.07;6.75;;;486.80;2380.80;;;;;;5072950;28;20032;-80
2021/05/11 07:07:17;;;;;;;9.45;6.38;;;512.00;2355.20;;;;;;5072671;28;20026;-80
2021/05/11 07:14:59;;;;;;;10.95;6.20;;;512.60;2278.40;;;;;;5074496;28;20511;-80
2021/05/11 07:17:28;;;;;;;7.70;5.05;;;512.90;2252.80;;;;;;5073179;28;20033;-78
2021/05/11 07:19:55;;;;;;;14.05;5.05;;;512.80;2201.60;;;;;;5063523;28;20064;-76
2021/05/11 07:22:21;;;;;;;12.13;6.80;;;512.90;2252.80;;;;;;5068966;28;20021;-77
2021/05/11 07:24:51;;;;;;;11.32;6.20;;;537.80;2278.40;;;;;;5070926;28;20032;-79
2021/05/11 07:29:56;;;;;;;9.65;4.90;;;538.10;2201.60;;;;;;5068327;28;20044;-80
2021/05/11 07:32:22;;;;;;;11.25;5.43;;;538.20;2150.40;;;;;;5073786;28;20442;-83
2021/05/11 07:34:51;;;;;;;11.95;5.57;;;538.30;2150.40;;;;;;5073130;28;20031;-82
2021/05/11 07:37:17;;;;;;;27.45;8.20;;;538.30;2150.40;;;;;;5073481;28;20036;-83
2021/05/11 07:39:45;;;;;;;13.98;7.20;;;538.50;2150.40;;;;;;5071904;28;20058;-83
2021/05/11 07:42:11;;;;;;;11.10;6.28;;;563.30;2124.80;;;;;;5074763;28;20170;-84
2021/05/11 07:44:42;;;;;;;10.23;5.85;;;588.80;2099.20;;;;;;5072960;28;20131;-83
2021/05/11 07:48:07;;;;;;;8.77;4.53;;;563.50;2048.00;;;;;;5073776;28;20025;-87
2021/05/11 08:16:14;;;;;;;20.80;5.10;;;589.60;1894.40;;;;;;5076494;28;20066;-80
2021/05/11 08:18:57;;;;;;;21.00;9.25;;;589.70;1868.80;;;;;;5075518;28;20059;-80
2021/05/11 08:29:35;;;;;;;7.68;5.22;;;614.70;1817.60;;;;;;5076285;28;20035;-81
2021/05/11 08:32:01;;;;;;;12.38;6.57;;;614.80;1817.60;;;;;;5059504;28;20024;-80
2021/05/11 08:34:27;;;;;;;13.45;6.20;;;615.00;1792.00;;;;;;5065688;28;20461;-79
2021/05/11 08:36:53;;;;;;;20.98;7.10;;;615.00;1792.00;;;;;;5077940;28;20016;-79
2021/05/11 08:39:20;;;;;;;8.88;5.18;;;615.20;1792.00;;;;;;5078420;28;20103;-76
2021/05/11 08:41:46;;;;;;;8.77;4.38;;;640.00;1766.40;;;;;;5095884;28;20020;-78
2021/05/11 08:44:16;;;;;;;13.27;6.07;;;640.00;1766.40;;;;;;5096661;28;20046;-79
2021/05/11 08:46:42;;;;;;;5.72;3.92;;;640.10;1740.80;;;;;;5096956;28;20088;-78
2021/05/11 08:49:13;;;;;;;8.75;4.72;;;640.00;1740.80;;;;;;5078693;28;20457;-82
2021/05/11 09:28:32;;;;;;;8.07;5.55;;;691.20;1587.20;;;;;;5062671;28;20036;-82
2021/05/11 09:31:05;;;;;;;11.02;5.70;;;691.60;1536.00;;;;;;5079147;28;20024;-84
2021/05/11 09:58:59;;;;;;;11.35;5.43;;;717.60;1382.40;;;;;;5107982;28;20055;-82
2021/05/11 10:46:56;;;;;;;8.63;4.95;;;768.90;1280.00;;;;;;5096682;28;20035;-83
2021/05/11 10:49:37;;;;;;;9.52;4.60;;;768.90;1254.40;;;;;;5078500;28;20389;-82
2021/05/11 10:52:16;;;;;;;8.23;5.32;;;793.70;1254.40;;;;;;5078660;28;20445;-83
2021/05/11 10:54:55;;;;;;;8.95;4.63;;;794.00;1254.40;;;;;;5096575;28;20024;-83
2021/05/11 10:57:55;;;;;;;11.43;5.38;;;794.00;1280.00;;;;;;5077454;28;20027;-84
2021/05/11 11:00:33;;;;;;;11.95;4.18;;;794.20;1254.40;;;;;;5077815;28;20028;-82
2021/05/11 11:03:22;;;;;;;9.02;5.50;;;794.20;1203.20;;;;;;5077771;28;20384;-82
2021/05/11 11:05:57;;;;;;;10.00;3.90;;;794.50;1228.80;;;;;;5077132;28;20028;-82
2021/05/11 11:08:42;;;;;;;9.57;5.40;;;794.30;1203.20;;;;;;5076940;28;20144;-81
2021/05/11 11:11:20;;;;;;;9.68;4.10;;;794.50;1203.20;;;;;;5077360;28;20503;-82
2021/05/11 11:13:50;;;;;;;5.20;3.47;;;794.20;1177.60;;;;;;5076869;28;20066;-83
2021/05/11 11:16:17;;;;;;;6.72;4.15;;;794.20;1177.60;;;;;;5076978;28;20028;-81
2021/05/11 11:18:47;;;;;;;12.57;4.60;;;794.40;1203.20;;;;;;5077763;28;20024;-84
2021/05/11 11:23:54;;;;;;;8.02;3.83;;;819.70;1152.00;;;;;;5094919;28;20077;-83
2021/05/11 11:26:38;;;;;;;8.10;3.83;;;819.70;1152.00;;;;;;5076867;28;20024;-83
2021/05/11 11:29:09;;;;;;;9.85;4.22;;;819.60;1126.40;;;;;;5076729;28;20048;-83
2021/05/11 11:31:39;;;;;;;9.30;3.95;;;819.80;1152.00;;;;;;5076532;28;20127;-83
2021/05/11 11:34:25;;;;;;;8.65;3.85;;;819.90;1126.40;;;;;;5094804;28;20055;-83
2021/05/11 11:36:59;;;;;;;11.90;4.20;;;819.90;1126.40;;;;;;5076341;28;20028;-84
2021/05/11 11:39:31;;;;;;;9.70;4.90;;;820.10;1152.00;;;;;;5076517;28;20032;-83
2021/05/11 11:42:00;;;;;;;9.82;4.80;;;820.10;1126.40;;;;;;5077013;28;20461;-82
2021/05/11 11:44:28;;;;;;;9.02;4.40;;;845.10;1152.00;;;;;;5076420;28;20032;-83
2021/05/11 11:46:57;;;;;;;14.73;3.90;;;845.00;1126.40;;;;;;5076422;28;20029;-84
2021/05/11 11:49:28;;;;;;;9.93;4.45;;;845.20;1126.40;;;;;;5075517;28;20024;-84
2021/05/11 12:00:29;;;;;;;8.70;4.78;;;845.60;1075.20;;;;;;5094714;28;20038;-86
2021/05/11 12:02:59;;;;;;;8.35;4.05;;;845.60;1075.20;;;;;;5075735;28;20463;-84
2021/05/11 12:05:31;;;;;;;10.57;4.53;;;870.50;1100.80;;;;;;5076060;28;20036;-84
2021/05/11 12:10:48;;;;;;;11.07;4.35;;;870.60;1100.80;;;;;;5094522;28;20046;-85
2021/05/11 12:13:28;;;;;;;7.20;3.97;;;870.70;1075.20;;;;;;5077217;28;20422;-84
2021/05/11 12:16:20;;;;;;;11.95;4.75;;;870.70;1075.20;;;;;;5076944;28;20028;-84
2021/05/11 12:19:10;;;;;;;8.32;3.33;;;870.80;1075.20;;;;;;5074409;28;20026;-83
2021/05/11 12:22:01;;;;;;;10.13;4.07;;;870.70;1024.00;;;;;;5076357;28;20051;-84
2021/05/11 12:24:41;;;;;;;13.55;4.30;;;870.70;1049.60;;;;;;5075072;28;20036;-85
2021/05/11 12:27:19;;;;;;;7.45;3.33;;;870.70;1024.00;;;;;;5076245;28;20118;-84
2021/05/11 12:30:17;;;;;;;7.43;3.55;;;870.70;1024.00;;;;;;5076281;28;20158;-84
2021/05/11 12:32:43;;;;;;;12.68;3.70;;;870.80;1024.00;;;;;;5031985;28;20036;-85
2021/05/11 12:35:16;;;;;;;7.70;3.55;;;870.80;1049.60;;;;;;5076149;28;20028;-83
2021/05/11 12:37:55;;;;;;;7.72;4.07;;;870.80;998.40;;;;;;5093815;28;20024;-84
2021/05/11 12:40:25;;;;;;;7.32;2.78;;;870.90;998.40;;;;;;5094471;28;20483;-84
2021/05/11 12:42:53;;;;;;;8.40;3.38;;;871.00;972.80;;;;;;5076022;28;20024;-85
2021/05/11 12:45:18;;;;;;;4.93;2.65;;;871.00;998.40;;;;;;5075603;28;20116;-83
2021/05/11 12:47:52;;;;;;;7.95;3.50;;;871.10;972.80;;;;;;5073994;28;20119;-85
2021/05/11 12:50:27;;;;;;;14.30;3.10;;;871.10;972.80;;;;;;5075821;28;20107;-83
2021/05/11 12:52:55;;;;;;;9.63;3.70;;;871.10;972.80;;;;;;5074243;28;20061;-82
2021/05/11 13:05:03;;;;;;;7.97;2.90;;;871.30;972.80;;;;;;5097618;28;20032;-83
2021/05/11 13:25:58;;;;;;;4.47;2.53;;;871.20;972.80;;;;;;5097243;28;20266;-84
2021/05/11 13:28:32;;;;;;;9.52;2.63;;;871.30;896.00;;;;;;5078665;28;20423;-83
2021/05/11 13:33:33;;;;;;;5.53;3.47;;;870.90;921.60;;;;;;5096836;28;20043;-84
2021/05/11 13:36:00;;;;;;;9.73;3.40;;;871.10;921.60;;;;;;5078947;28;20032;-84
2021/05/11 13:38:25;;;;;;;6.75;3.25;;;871.10;896.00;;;;;;5079451;28;20035;-84
2021/05/11 13:40:51;;;;;;;6.43;3.35;;;871.10;921.60;;;;;;5078454;28;20024;-84
2021/05/11 13:43:18;;;;;;;6.25;2.90;;;871.20;921.60;;;;;;5080221;28;20020;-84
2021/05/11 13:45:44;;;;;;;8.02;2.58;;;896.10;921.60;;;;;;5081140;28;20029;-82
2021/05/11 13:53:26;;;;;;;5.10;2.78;;;871.30;921.60;;;;;;5074247;28;20074;-82
2021/05/11 14:03:48;;;;;;;7.05;3.60;;;871.30;947.20;;;;;;5088918;28;20034;-79
2021/05/11 14:06:13;;;;;;;5.10;3.40;;;871.30;921.60;;;;;;5078706;28;20119;-78
2021/05/11 14:08:39;;;;;;;11.75;5.90;;;871.20;947.20;;;;;;5072656;28;20111;-79
2021/05/11 14:11:05;;;;;;;14.43;7.95;;;871.10;947.20;;;;;;5076313;28;20523;-78
2021/05/11 14:13:31;;;;;;;7.63;5.28;;;871.10;947.20;;;;;;5076026;28;20023;-80
2021/05/11 14:15:57;;;;;;;10.30;7.35;;;871.10;972.80;;;;;;5076258;28;20107;-80
2021/05/11 14:18:23;;;;;;;11.10;6.97;;;871.30;947.20;;;;;;5085552;28;20461;-80
2021/05/11 14:20:49;;;;;;;10.65;6.68;;;871.30;947.20;;;;;;5055622;28;20052;-80
2021/05/11 14:23:15;;;;;;;12.55;6.20;;;871.30;921.60;;;;;;5056152;28;20437;-80
2021/05/11 14:25:41;;;;;;;12.13;6.82;;;871.20;921.60;;;;;;5052617;28;20064;-80
2021/05/11 14:28:07;;;;;;;9.77;6.53;;;871.20;947.20;;;;;;5055095;28;20098;-80
2021/05/11 14:30:33;;;;;;;8.25;5.40;;;871.20;947.20;;;;;;5052111;28;20028;-79
2021/05/11 14:32:59;;;;;;;8.85;5.72;;;871.20;947.20;;;;;;5061069;28;20039;-79
2021/05/11 14:35:25;;;;;;;11.93;5.72;;;871.10;947.20;;;;;;5054697;28;20071;-80
2021/05/11 14:37:51;;;;;;;9.65;5.10;;;871.10;947.20;;;;;;5056360;28;20024;-80
2021/05/11 14:40:17;;;;;;;12.85;6.07;;;871.00;947.20;;;;;;5052393;28;20028;-79
2021/05/11 14:42:44;;;;;;;12.80;5.38;;;870.90;947.20;;;;;;5052940;28;20040;-79
2021/05/11 14:45:10;;;;;;;12.05;6.50;;;870.90;921.60;;;;;;5067407;28;20093;-82
2021/05/11 14:47:37;;;;;;;15.77;10.10;;;870.80;947.20;;;;;;5062933;28;20458;-83
2021/05/11 14:50:04;;;;;;;12.85;7.55;;;870.70;947.20;;;;;;5067058;28;20029;-84
2021/05/11 14:52:30;;;;;;;13.15;8.13;;;870.80;947.20;;;;;;5065220;28;20024;-84
2021/05/11 14:54:55;;;;;;;11.82;5.28;;;870.70;972.80;;;;;;5071176;28;20043;-81
2021/05/11 14:57:21;;;;;;;9.65;5.15;;;870.60;972.80;;;;;;5068255;28;20037;-84
2021/05/11 14:59:47;;;;;;;13.38;5.03;;;870.80;972.80;;;;;;5075457;28;20097;-83
2021/05/11 15:02:14;;;;;;;8.70;4.05;;;870.70;972.80;;;;;;5069058;28;20020;-84
2021/05/11 15:04:40;;;;;;;4.90;2.50;;;870.60;972.80;;;;;;5067472;28;20025;-84
2021/05/11 15:07:06;;;;;;;10.82;3.45;;;870.50;972.80;;;;;;5072235;28;20075;-81
2021/05/11 15:09:31;;;;;;;7.85;3.33;;;845.70;972.80;;;;;;5065844;28;20055;-79
2021/05/11 15:11:59;;;;;;;8.38;3.33;;;845.70;972.80;;;;;;5069094;28;20021;-82
2021/05/11 15:14:25;;;;;;;8.55;2.70;;;870.50;972.80;;;;;;5071731;28;20060;-80
2021/05/11 15:16:58;;;;;;;12.48;4.35;;;845.60;998.40;;;;;;5072579;28;20055;-81
2021/05/11 15:19:24;;;;;;;10.32;2.75;;;845.60;972.80;;;;;;5067868;28;20507;-82
2021/05/11 15:21:50;;;;;;;5.63;3.38;;;845.40;972.80;;;;;;5066449;28;20025;-81
2021/05/11 15:24:16;;;;;;;8.15;2.85;;;845.40;972.80;;;;;;5069208;28;20041;-86
2021/05/11 15:26:48;;;;;;;7.47;3.50;;;845.20;998.40;;;;;;5066691;28;20116;-87
2021/05/11 15:29:14;;;;;;;12.50;4.75;;;845.20;998.40;;;;;;5065771;28;20131;-86
2021/05/11 15:31:40;;;;;;;11.68;5.68;;;844.90;998.40;;;;;;5069902;28;20038;-86
2021/05/11 15:34:06;;;;;;;9.10;4.47;;;844.90;1024.00;;;;;;5069453;28;20040;-85
2021/05/11 15:36:32;;;;;;;11.45;6.00;;;844.90;1024.00;;;;;;5072537;28;20017;-86
2021/05/11 15:38:57;;;;;;;11.60;4.55;;;844.90;1049.60;;;;;;5071849;28;20020;-80
2021/05/11 15:41:23;;;;;;;14.48;7.03;;;820.00;972.80;;;;;;5072134;28;20566;-83
2021/05/11 15:43:49;;;;;;;10.40;3.30;;;820.10;998.40;;;;;;5071803;28;20036;-86
2021/05/11 15:46:15;;;;;;;8.18;3.38;;;819.90;1024.00;;;;;;5067987;28;20175;-88
2021/05/11 15:48:41;;;;;;;13.02;7.47;;;819.80;998.40;;;;;;5065592;28;20103;-85
2021/05/11 15:51:07;;;;;;;12.30;5.88;;;819.80;998.40;;;;;;5069039;28;20044;-84
2021/05/11 15:53:33;;;;;;;13.85;3.75;;;819.60;1024.00;;;;;;5067860;28;20087;-83
2021/05/11 15:56:11;;;;;;;5.15;3.40;;;819.50;1049.60;;;;;;5067410;28;20029;-87
2021/05/11 15:58:37;;;;;;;9.38;3.28;;;794.50;1049.60;;;;;;5064769;28;20468;-88
2021/05/11 16:01:03;;;;;;;8.48;3.35;;;794.20;1075.20;;;;;;5060317;28;20124;-86
2021/05/11 16:03:38;;;;;;;6.97;3.22;;;793.90;1075.20;;;;;;5067725;28;20520;-87
2021/05/11 16:06:09;;;;;;;5.07;3.10;;;768.90;1075.20;;;;;;5059360;28;20036;-86
2021/05/11 16:08:35;;;;;;;8.13;3.35;;;768.60;1100.80;;;;;;5066078;28;20025;-85
2021/05/11 16:11:02;;;;;;;8.90;3.90;;;768.60;1100.80;;;;;;5065637;28;20024;-87
2021/05/11 16:13:49;;;;;;;10.05;4.18;;;768.50;1100.80;;;;;;5085024;28;20021;-86
2021/05/11 16:16:17;;;;;;;11.45;7.30;;;768.30;1126.40;;;;;;5048649;28;20017;-86
2021/05/11 16:18:43;;;;;;;12.95;4.53;;;768.10;1126.40;;;;;;5067450;28;20421;-85
2021/05/11 16:21:09;;;;;;;11.20;3.63;;;743.30;1126.40;;;;;;5067781;28;20016;-85
2021/05/11 16:23:35;;;;;;;9.45;3.70;;;743.20;1152.00;;;;;;5072158;28;20377;-84
2021/05/11 16:29:26;;;;;;;13.55;5.53;;;743.00;1152.00;;;;;;5064658;28;20030;-87
2021/05/11 16:31:52;;;;;;;14.65;6.65;;;742.90;1177.60;;;;;;5071313;28;20024;-85
2021/05/11 16:34:19;;;;;;;8.95;4.85;;;742.80;1177.60;;;;;;5051284;28;20040;-83
2021/05/11 16:36:45;;;;;;;8.32;3.33;;;742.80;1177.60;;;;;;5071782;28;20124;-84
2021/05/11 16:39:11;;;;;;;15.05;4.57;;;742.70;1203.20;;;;;;5065112;28;20473;-81
2021/05/11 16:41:37;;;;;;;11.77;4.38;;;742.60;1203.20;;;;;;5064375;28;20040;-81
2021/05/11 16:44:03;;;;;;;25.63;4.70;;;742.50;1203.20;;;;;;5059223;28;20071;-81
2021/05/11 16:46:29;;;;;;;16.10;3.97;;;742.40;1228.80;;;;;;5077049;28;20028;-80
2021/05/11 16:48:57;;;;;;;18.25;3.58;;;717.70;1203.20;;;;;;5062445;28;20021;-81
2021/05/11 16:51:24;;;;;;;7.93;3.78;;;717.60;1203.20;;;;;;5058127;28;20048;-81
2021/05/11 16:53:49;;;;;;;13.52;5.40;;;717.60;1228.80;;;;;;5066109;28;20147;-82
2021/05/11 16:56:15;;;;;;;14.25;5.85;;;717.50;1203.20;;;;;;5059508;28;20316;-81
2021/05/11 16:58:41;;;;;;;12.82;6.05;;;717.50;1203.20;;;;;;5071597;28;20453;-79
2021/05/11 17:01:07;;;;;;;18.20;12.52;;;717.30;1228.80;;;;;;5048004;28;20029;-82
2021/05/11 17:03:33;;;;;;;18.38;12.98;;;717.10;1254.40;;;;;;5064021;28;20029;-81
2021/05/11 17:05:58;;;;;;;16.73;7.28;;;717.10;1254.40;;;;;;5062621;28;20043;-82
2021/05/11 17:08:24;;;;;;;8.98;4.32;;;717.10;1280.00;;;;;;5070225;28;20027;-81
2021/05/11 17:10:50;;;;;;;9.68;3.50;;;692.10;1254.40;;;;;;5059374;28;20029;-82